sensor_id;sensor_type;location;lat;lon;timestamp;pressure;altitude;pressure_sealevel;temperature;humidity
13478;BME280;12598;62.382;17.344;2023-01-30T00:00:16;97059.44;;;18.82;24.77
13478;BME280;12598;62.382;17.344;2023-01-30T00:01:20;97028.69;;;18.68;24.62
13478;BME280;12598;62.382;17.344;2023-01-30T00:02:23;97061.28;;;18.81;24.92
13478;BME280;12598;62.382;17.344;2023-01-30T00:03:25;97050.84;;;18.80;25.05
13478;BME280;12598;62.382;17.344;2023-01-30T00:04:27;97035.50;;;18.75;24.87
13478;BME280;12598;62.382;17.344;2023-01-30T00:05:29;97029.59;;;18.73;24.87
13478;BME280;12598;62.382;17.344;2023-01-30T00:06:31;97029.84;;;18.72;24.77
13478;BME280;12598;62.382;17.344;2023-01-30T00:07:33;97038.75;;;18.77;24.57
13478;BME280;12598;62.382;17.344;2023-01-30T00:08:35;97036.81;;;18.73;24.59
13478;BME280;12598;62.382;17.344;2023-01-30T00:09:36;97025.44;;;18.66;24.94
13478;BME280;12598;62.382;17.344;2023-01-30T00:10:38;97037.97;;;18.77;24.75
13478;BME280;12598;62.382;17.344;2023-01-30T00:11:40;97035.50;;;18.75;24.68
13478;BME280;12598;62.382;17.344;2023-01-30T00:12:43;97030.41;;;18.74;25.22
13478;BME280;12598;62.382;17.344;2023-01-30T00:13:45;97027.75;;;18.74;24.75
13478;BME280;12598;62.382;17.344;2023-01-30T00:14:48;97023.31;;;18.68;24.63
13478;BME280;12598;62.382;17.344;2023-01-30T00:15:49;97021.81;;;18.72;25.02
13478;BME280;12598;62.382;17.344;2023-01-30T00:16:51;97013.78;;;18.72;24.99
13478;BME280;12598;62.382;17.344;2023-01-30T00:17:53;97019.94;;;18.72;24.83
13478;BME280;12598;62.382;17.344;2023-01-30T00:18:55;97017.50;;;18.71;25.07
13478;BME280;12598;62.382;17.344;2023-01-30T00:19:57;97017.97;;;18.68;24.82
13478;BME280;12598;62.382;17.344;2023-01-30T00:21:00;97028.19;;;18.71;25.03
13478;BME280;12598;62.382;17.344;2023-01-30T00:22:03;97033.53;;;18.71;25.20
13478;BME280;12598;62.382;17.344;2023-01-30T00:23:04;97024.72;;;18.70;25.27
13478;BME280;12598;62.382;17.344;2023-01-30T00:24:06;97026.56;;;18.70;25.11
13478;BME280;12598;62.382;17.344;2023-01-30T00:25:08;97015.28;;;18.68;25.07
13478;BME280;12598;62.382;17.344;2023-01-30T00:26:11;97025.78;;;18.69;24.85
13478;BME280;12598;62.382;17.344;2023-01-30T00:27:14;97030.28;;;18.69;25.22
13478;BME280;12598;62.382;17.344;2023-01-30T00:28:15;97024.16;;;18.68;24.86
13478;BME280;12598;62.382;17.344;2023-01-30T00:29:17;97023.00;;;18.64;24.90
13478;BME280;12598;62.382;17.344;2023-01-30T00:30:19;97014.63;;;18.61;25.13
13478;BME280;12598;62.382;17.344;2023-01-30T00:31:21;97021.69;;;18.67;24.95
13478;BME280;12598;62.382;17.344;2023-01-30T00:32:24;97028.69;;;18.68;25.00
13478;BME280;12598;62.382;17.344;2023-01-30T00:33:27;97029.72;;;18.67;24.85
13478;BME280;12598;62.382;17.344;2023-01-30T00:34:29;97021.69;;;18.67;25.19
13478;BME280;12598;62.382;17.344;2023-01-30T00:35:31;97020.09;;;18.66;25.09
13478;BME280;12598;62.382;17.344;2023-01-30T00:36:33;97022.75;;;18.66;24.79
13478;BME280;12598;62.382;17.344;2023-01-30T00:37:35;97024.28;;;18.62;25.18
13478;BME280;12598;62.382;17.344;2023-01-30T00:38:36;96988.13;;;18.43;24.87
13478;BME280;12598;62.382;17.344;2023-01-30T00:39:40;97024.63;;;18.65;25.17
13478;BME280;12598;62.382;17.344;2023-01-30T00:40:42;97027.53;;;18.64;25.25
13478;BME280;12598;62.382;17.344;2023-01-30T00:41:44;97014.16;;;18.64;25.38
13478;BME280;12598;62.382;17.344;2023-01-30T00:43:05;97022.28;;;18.69;25.05
13478;BME280;12598;62.382;17.344;2023-01-30T00:44:25;97010.50;;;18.70;24.69
13478;BME280;12598;62.382;17.344;2023-01-30T00:45:46;97013.78;;;18.72;25.19
13478;BME280;12598;62.382;17.344;2023-01-30T00:47:07;97009.22;;;18.72;24.78
13478;BME280;12598;62.382;17.344;2023-01-30T00:48:09;97003.53;;;18.69;25.03
13478;BME280;12598;62.382;17.344;2023-01-30T00:49:11;96990.81;;;18.59;25.00
13478;BME280;12598;62.382;17.344;2023-01-30T00:50:14;97000.00;;;18.63;25.34
13478;BME280;12598;62.382;17.344;2023-01-30T00:51:17;96995.44;;;18.64;25.04
13478;BME280;12598;62.382;17.344;2023-01-30T00:52:18;96985.78;;;18.63;24.90
13478;BME280;12598;62.382;17.344;2023-01-30T00:53:20;96982.53;;;18.61;24.92
13478;BME280;12598;62.382;17.344;2023-01-30T00:54:22;96978.72;;;18.57;25.34
13478;BME280;12598;62.382;17.344;2023-01-30T00:55:25;96978.25;;;18.60;25.00
13478;BME280;12598;62.382;17.344;2023-01-30T00:56:26;96964.00;;;18.54;25.21
13478;BME280;12598;62.382;17.344;2023-01-30T00:57:30;96977.19;;;18.61;25.37
13478;BME280;12598;62.382;17.344;2023-01-30T00:58:32;96960.50;;;18.54;25.29
13478;BME280;12598;62.382;17.344;2023-01-30T00:59:34;96966.75;;;18.59;25.11
13478;BME280;12598;62.382;17.344;2023-01-30T01:00:36;96970.22;;;18.60;25.09
13478;BME280;12598;62.382;17.344;2023-01-30T01:01:38;96974.22;;;18.57;25.12
13478;BME280;12598;62.382;17.344;2023-01-30T01:02:40;96958.88;;;18.53;25.25
13478;BME280;12598;62.382;17.344;2023-01-30T01:03:42;96961.63;;;18.58;25.45
13478;BME280;12598;62.382;17.344;2023-01-30T01:04:44;96949.22;;;18.52;25.43
13478;BME280;12598;62.382;17.344;2023-01-30T01:05:45;96959.44;;;18.55;25.10
13478;BME280;12598;62.382;17.344;2023-01-30T01:06:47;96963.50;;;18.57;25.07
13478;BME280;12598;62.382;17.344;2023-01-30T01:07:49;96951.97;;;18.57;24.92
13478;BME280;12598;62.382;17.344;2023-01-30T01:08:51;96952.81;;;18.57;24.93
13478;BME280;12598;62.382;17.344;2023-01-30T01:09:53;96954.66;;;18.57;25.24
13478;BME280;12598;62.382;17.344;2023-01-30T01:10:55;96947.69;;;18.56;25.38
13478;BME280;12598;62.382;17.344;2023-01-30T01:11:56;96939.66;;;18.56;24.89
13478;BME280;12598;62.382;17.344;2023-01-30T01:12:58;96933.66;;;18.49;24.88
13478;BME280;12598;62.382;17.344;2023-01-30T01:14:02;96942.59;;;18.54;25.35
13478;BME280;12598;62.382;17.344;2023-01-30T01:15:05;96932.69;;;18.55;25.24
13478;BME280;12598;62.382;17.344;2023-01-30T01:16:07;96924.59;;;18.50;25.30
13478;BME280;12598;62.382;17.344;2023-01-30T01:17:09;96926.53;;;18.54;25.40
13478;BME280;12598;62.382;17.344;2023-01-30T01:18:12;96914.94;;;18.49;25.08
13478;BME280;12598;62.382;17.344;2023-01-30T01:19:13;96917.84;;;18.47;25.10
13478;BME280;12598;62.382;17.344;2023-01-30T01:20:17;96912.28;;;18.49;25.30
13478;BME280;12598;62.382;17.344;2023-01-30T01:21:20;96917.69;;;18.54;25.25
13478;BME280;12598;62.382;17.344;2023-01-30T01:22:22;96918.75;;;18.53;25.29
13478;BME280;12598;62.382;17.344;2023-01-30T01:23:24;96913.66;;;18.51;25.24
13478;BME280;12598;62.382;17.344;2023-01-30T01:24:26;96917.97;;;18.52;25.22
13478;BME280;12598;62.382;17.344;2023-01-30T01:25:28;96917.13;;;18.52;25.31
13478;BME280;12598;62.382;17.344;2023-01-30T01:26:30;96911.00;;;18.51;24.94
13478;BME280;12598;62.382;17.344;2023-01-30T01:27:32;96906.09;;;18.48;25.30
13478;BME280;12598;62.382;17.344;2023-01-30T01:28:34;96903.34;;;18.43;25.21
13478;BME280;12598;62.382;17.344;2023-01-30T01:29:35;96909.59;;;18.49;25.26
13478;BME280;12598;62.382;17.344;2023-01-30T01:30:37;96897.00;;;18.49;25.14
13478;BME280;12598;62.382;17.344;2023-01-30T01:31:40;96903.19;;;18.50;24.91
13478;BME280;12598;62.382;17.344;2023-01-30T01:32:42;96898.56;;;18.45;25.34
13478;BME280;12598;62.382;17.344;2023-01-30T01:33:44;96898.81;;;18.44;25.39
13478;BME280;12598;62.382;17.344;2023-01-30T01:34:46;96905.28;;;18.48;25.28
13478;BME280;12598;62.382;17.344;2023-01-30T01:35:48;96910.06;;;18.46;25.15
13478;BME280;12598;62.382;17.344;2023-01-30T01:36:50;96899.59;;;18.44;25.40
13478;BME280;12598;62.382;17.344;2023-01-30T01:37:55;96913.31;;;18.48;25.06
13478;BME280;12598;62.382;17.344;2023-01-30T01:38:57;96914.38;;;18.47;25.32
13478;BME280;12598;62.382;17.344;2023-01-30T01:39:58;96906.34;;;18.47;25.28
13478;BME280;12598;62.382;17.344;2023-01-30T01:41:19;96906.91;;;18.49;25.19
13478;BME280;12598;62.382;17.344;2023-01-30T01:42:21;96890.44;;;18.40;25.30
13478;BME280;12598;62.382;17.344;2023-01-30T01:43:24;96897.75;;;18.45;25.07
13478;BME280;12598;62.382;17.344;2023-01-30T01:44:26;96895.56;;;18.42;25.16
13478;BME280;12598;62.382;17.344;2023-01-30T01:45:28;96902.06;;;18.46;25.16
13478;BME280;12598;62.382;17.344;2023-01-30T01:46:34;96895.31;;;18.43;25.41
13478;BME280;12598;62.382;17.344;2023-01-30T01:48:26;96890.22;;;18.42;25.26
13478;BME280;12598;62.382;17.344;2023-01-30T01:49:15;96906.44;;;18.52;25.17
13478;BME280;12598;62.382;17.344;2023-01-30T01:50:22;96898.66;;;18.50;25.13
13478;BME280;12598;62.382;17.344;2023-01-30T01:51:29;96901.56;;;18.49;25.12
13478;BME280;12598;62.382;17.344;2023-01-30T01:52:32;96897.50;;;18.46;25.15
13478;BME280;12598;62.382;17.344;2023-01-30T01:53:41;96894.44;;;18.38;25.50
13478;BME280;12598;62.382;17.344;2023-01-30T01:54:55;96901.56;;;18.49;25.24
13478;BME280;12598;62.382;17.344;2023-01-30T01:56:01;96899.94;;;18.48;25.19
13478;BME280;12598;62.382;17.344;2023-01-30T01:57:08;96891.59;;;18.44;25.29
13478;BME280;12598;62.382;17.344;2023-01-30T01:58:17;96894.03;;;18.46;25.54
13478;BME280;12598;62.382;17.344;2023-01-30T01:59:34;96892.97;;;18.47;25.29
13478;BME280;12598;62.382;17.344;2023-01-30T02:00:38;96898.31;;;18.47;25.39
13478;BME280;12598;62.382;17.344;2023-01-30T02:01:40;96895.09;;;18.45;25.24
13478;BME280;12598;62.382;17.344;2023-01-30T02:02:50;96883.00;;;18.42;25.29
13478;BME280;12598;62.382;17.344;2023-01-30T02:03:57;96889.97;;;18.43;25.30
13478;BME280;12598;62.382;17.344;2023-01-30T02:05:03;96883.81;;;18.43;25.19
13478;BME280;12598;62.382;17.344;2023-01-30T02:06:08;96889.16;;;18.43;25.46
13478;BME280;12598;62.382;17.344;2023-01-30T02:07:10;96881.16;;;18.43;25.55
13478;BME280;12598;62.382;17.344;2023-01-30T02:08:19;96868.19;;;18.35;25.23
13478;BME280;12598;62.382;17.344;2023-01-30T02:09:24;96869.31;;;18.39;25.62
13478;BME280;12598;62.382;17.344;2023-01-30T02:11:49;96880.66;;;18.46;25.34
13478;BME280;12598;62.382;17.344;2023-01-30T02:12:55;96868.28;;;18.40;25.33
13478;BME280;12598;62.382;17.344;2023-01-30T02:13:58;96885.66;;;18.42;25.47
13478;BME280;12598;62.382;17.344;2023-01-30T02:15:01;96881.38;;;18.41;25.46
13478;BME280;12598;62.382;17.344;2023-01-30T02:16:06;96871.91;;;18.34;25.61
13478;BME280;12598;62.382;17.344;2023-01-30T02:17:08;96884.31;;;18.40;25.58
13478;BME280;12598;62.382;17.344;2023-01-30T02:18:14;96886.91;;;18.35;25.36
13478;BME280;12598;62.382;17.344;2023-01-30T02:19:51;96886.50;;;18.43;25.65
13478;BME280;12598;62.382;17.344;2023-01-30T02:27:17;96870.88;;;18.51;25.15
13478;BME280;12598;62.382;17.344;2023-01-30T02:30:53;96876.84;;;18.42;25.28
13478;BME280;12598;62.382;17.344;2023-01-30T02:38:11;96887.16;;;18.50;25.13
13478;BME280;12598;62.382;17.344;2023-01-30T02:41:10;96880.16;;;18.49;25.03
13478;BME280;12598;62.382;17.344;2023-01-30T02:42:35;96873.19;;;18.48;25.34
13478;BME280;12598;62.382;17.344;2023-01-30T02:43:50;96869.41;;;18.44;25.09
13478;BME280;12598;62.382;17.344;2023-01-30T02:46:32;96866.16;;;18.42;25.23
13478;BME280;12598;62.382;17.344;2023-01-30T02:47:41;96862.84;;;18.35;25.26
13478;BME280;12598;62.382;17.344;2023-01-30T02:49:10;96863.47;;;18.42;25.21
13478;BME280;12598;62.382;17.344;2023-01-30T02:50:22;96865.03;;;18.38;25.14
13478;BME280;12598;62.382;17.344;2023-01-30T02:51:33;96850.25;;;18.35;25.40
13478;BME280;12598;62.382;17.344;2023-01-30T02:52:36;96860.97;;;18.35;25.58
13478;BME280;12598;62.382;17.344;2023-01-30T02:53:38;96857.16;;;18.31;25.43
13478;BME280;12598;62.382;17.344;2023-01-30T02:54:41;96867.06;;;18.31;25.54
13478;BME280;12598;62.382;17.344;2023-01-30T02:55:43;96860.09;;;18.30;25.27
13478;BME280;12598;62.382;17.344;2023-01-30T02:56:52;96868.34;;;18.28;25.57
13478;BME280;12598;62.382;17.344;2023-01-30T02:57:56;96865.44;;;18.30;25.50
13478;BME280;12598;62.382;17.344;2023-01-30T02:59:02;96857.63;;;18.28;25.30
13478;BME280;12598;62.382;17.344;2023-01-30T03:00:09;96850.44;;;18.29;25.52
13478;BME280;12598;62.382;17.344;2023-01-30T03:01:44;96853.69;;;18.31;25.74
13478;BME280;12598;62.382;17.344;2023-01-30T03:04:28;96850.84;;;18.37;25.21
13478;BME280;12598;62.382;17.344;2023-01-30T03:08:22;96851.31;;;18.34;25.20
13478;BME280;12598;62.382;17.344;2023-01-30T03:11:03;96849.47;;;18.35;25.50
13478;BME280;12598;62.382;17.344;2023-01-30T03:14:54;96833.09;;;18.31;25.33
13478;BME280;12598;62.382;17.344;2023-01-30T03:16:02;96842.44;;;18.29;25.60
13478;BME280;12598;62.382;17.344;2023-01-30T03:17:08;96835.88;;;18.25;25.54
13478;BME280;12598;62.382;17.344;2023-01-30T03:18:11;96828.63;;;18.20;25.76
13478;BME280;12598;62.382;17.344;2023-01-30T03:19:13;96832.56;;;18.18;25.29
13478;BME280;12598;62.382;17.344;2023-01-30T03:20:18;96832.91;;;18.21;25.42
13478;BME280;12598;62.382;17.344;2023-01-30T03:21:20;96826.50;;;18.22;25.69
13478;BME280;12598;62.382;17.344;2023-01-30T03:22:25;96833.13;;;18.20;25.44
13478;BME280;12598;62.382;17.344;2023-01-30T03:23:29;96829.41;;;18.21;25.59
13478;BME280;12598;62.382;17.344;2023-01-30T03:24:31;96831.28;;;18.20;25.62
13478;BME280;12598;62.382;17.344;2023-01-30T03:25:34;96833.13;;;18.20;25.98
13478;BME280;12598;62.382;17.344;2023-01-30T03:26:46;96815.97;;;18.16;25.72
13478;BME280;12598;62.382;17.344;2023-01-30T03:27:50;96811.66;;;18.15;25.82
13478;BME280;12598;62.382;17.344;2023-01-30T03:28:54;96824.06;;;18.21;25.28
13478;BME280;12598;62.382;17.344;2023-01-30T03:29:56;96812.22;;;18.17;25.50
13478;BME280;12598;62.382;17.344;2023-01-30T03:30:58;96812.00;;;18.18;25.59
13478;BME280;12598;62.382;17.344;2023-01-30T03:32:00;96816.31;;;18.19;25.57
13478;BME280;12598;62.382;17.344;2023-01-30T03:33:03;96808.28;;;18.19;25.87
13478;BME280;12598;62.382;17.344;2023-01-30T03:34:05;96821.06;;;18.17;25.72
13478;BME280;12598;62.382;17.344;2023-01-30T03:35:07;96807.72;;;18.17;25.66
13478;BME280;12598;62.382;17.344;2023-01-30T03:36:10;96814.69;;;18.18;26.28
13478;BME280;12598;62.382;17.344;2023-01-30T03:37:12;96811.19;;;18.18;26.02
13478;BME280;12598;62.382;17.344;2023-01-30T03:38:14;96809.56;;;18.17;25.93
13478;BME280;12598;62.382;17.344;2023-01-30T03:39:16;96818.41;;;18.17;25.57
13478;BME280;12598;62.382;17.344;2023-01-30T03:40:19;96807.72;;;18.17;25.96
13478;BME280;12598;62.382;17.344;2023-01-30T03:41:21;96810.63;;;18.16;25.98
13478;BME280;12598;62.382;17.344;2023-01-30T03:42:23;96773.59;;;17.91;25.85
13478;BME280;12598;62.382;17.344;2023-01-30T03:43:25;96805.28;;;18.16;25.59
13478;BME280;12598;62.382;17.344;2023-01-30T03:44:27;96809.00;;;18.15;25.79
13478;BME280;12598;62.382;17.344;2023-01-30T03:45:28;96795.81;;;18.08;25.75
13478;BME280;12598;62.382;17.344;2023-01-30T03:46:30;96812.22;;;18.17;25.92
13478;BME280;12598;62.382;17.344;2023-01-30T03:47:32;96809.00;;;18.15;25.92
13478;BME280;12598;62.382;17.344;2023-01-30T03:48:34;96808.13;;;18.09;25.63
13478;BME280;12598;62.382;17.344;2023-01-30T03:49:36;96808.78;;;18.16;25.77
13478;BME280;12598;62.382;17.344;2023-01-30T03:50:38;96816.78;;;18.16;25.98
13478;BME280;12598;62.382;17.344;2023-01-30T03:51:40;96810.63;;;18.16;26.01
13478;BME280;12598;62.382;17.344;2023-01-30T03:52:42;96813.53;;;18.14;25.83
13478;BME280;12598;62.382;17.344;2023-01-30T03:53:48;96800.09;;;18.09;25.98
13478;BME280;12598;62.382;17.344;2023-01-30T03:54:51;96811.44;;;18.16;26.08
13478;BME280;12598;62.382;17.344;2023-01-30T03:55:53;96791.25;;;18.09;25.84
13478;BME280;12598;62.382;17.344;2023-01-30T03:57:00;96800.09;;;18.09;26.19
13478;BME280;12598;62.382;17.344;2023-01-30T03:58:02;96807.94;;;18.16;26.04
13478;BME280;12598;62.382;17.344;2023-01-30T03:59:06;96781.06;;;18.06;25.98
13478;BME280;12598;62.382;17.344;2023-01-30T04:00:20;96804.78;;;18.19;25.95
13478;BME280;12598;62.382;17.344;2023-01-30T04:01:23;96799.13;;;18.15;26.13
13478;BME280;12598;62.382;17.344;2023-01-30T04:02:25;96786.47;;;18.11;26.15
13478;BME280;12598;62.382;17.344;2023-01-30T04:03:28;96798.88;;;18.17;26.02
13478;BME280;12598;62.382;17.344;2023-01-30T04:04:33;96793.78;;;18.15;26.14
13478;BME280;12598;62.382;17.344;2023-01-30T04:05:37;96792.72;;;18.16;25.81
13478;BME280;12598;62.382;17.344;2023-01-30T04:06:41;96783.25;;;18.09;26.16
13478;BME280;12598;62.382;17.344;2023-01-30T04:07:43;96788.66;;;18.14;25.89
13478;BME280;12598;62.382;17.344;2023-01-30T04:08:46;96798.31;;;18.15;26.04
13478;BME280;12598;62.382;17.344;2023-01-30T04:10:01;96787.13;;;18.18;26.06
13478;BME280;12598;62.382;17.344;2023-01-30T04:11:03;96772.00;;;18.07;26.11
13478;BME280;12598;62.382;17.344;2023-01-30T04:12:05;96791.91;;;18.16;25.87
13478;BME280;12598;62.382;17.344;2023-01-30T04:13:13;96799.94;;;18.16;26.04
13478;BME280;12598;62.382;17.344;2023-01-30T04:14:15;96790.28;;;18.15;26.22
13478;BME280;12598;62.382;17.344;2023-01-30T04:15:35;96787.13;;;18.18;26.08
13478;BME280;12598;62.382;17.344;2023-01-30T04:17:12;96791.50;;;18.24;25.75
13478;BME280;12598;62.382;17.344;2023-01-30T04:18:34;96791.50;;;18.24;25.89
13478;BME280;12598;62.382;17.344;2023-01-30T04:19:46;96784.53;;;18.23;26.14
13478;BME280;12598;62.382;17.344;2023-01-30T04:20:48;96787.13;;;18.18;25.61
13478;BME280;12598;62.382;17.344;2023-01-30T04:21:54;96779.03;;;18.13;26.10
13478;BME280;12598;62.382;17.344;2023-01-30T04:22:56;96787.63;;;18.15;26.20
13478;BME280;12598;62.382;17.344;2023-01-30T04:24:00;96783.59;;;18.12;26.12
13478;BME280;12598;62.382;17.344;2023-01-30T04:25:02;96786.47;;;18.11;25.90
13478;BME280;12598;62.382;17.344;2023-01-30T04:26:05;96781.13;;;18.11;26.17
13478;BME280;12598;62.382;17.344;2023-01-30T04:27:10;96782.19;;;18.10;25.98
13478;BME280;12598;62.382;17.344;2023-01-30T04:28:23;96786.81;;;18.14;26.18
13478;BME280;12598;62.382;17.344;2023-01-30T04:29:26;96781.41;;;18.09;25.93
13478;BME280;12598;62.382;17.344;2023-01-30T04:30:29;96786.47;;;18.11;26.21
13478;BME280;12598;62.382;17.344;2023-01-30T04:32:07;96785.00;;;18.20;25.90
13478;BME280;12598;62.382;17.344;2023-01-30T04:33:10;96788.19;;;18.17;26.10
13478;BME280;12598;62.382;17.344;2023-01-30T04:34:12;96786.00;;;18.14;25.62
13478;BME280;12598;62.382;17.344;2023-01-30T04:35:15;96790.69;;;18.07;26.20
13478;BME280;12598;62.382;17.344;2023-01-30T04:36:17;96789.41;;;18.09;26.27
13478;BME280;12598;62.382;17.344;2023-01-30T04:37:19;96800.91;;;18.10;25.99
13478;BME280;12598;62.382;17.344;2023-01-30T04:38:23;96799.28;;;18.09;26.02
13478;BME280;12598;62.382;17.344;2023-01-30T04:39:26;96800.91;;;18.10;25.97
13478;BME280;12598;62.382;17.344;2023-01-30T04:40:28;96792.31;;;18.08;25.97
13478;BME280;12598;62.382;17.344;2023-01-30T04:41:30;96793.94;;;18.09;26.13
13478;BME280;12598;62.382;17.344;2023-01-30T04:42:34;96790.63;;;18.02;26.36
13478;BME280;12598;62.382;17.344;2023-01-30T04:43:59;96791.03;;;18.10;25.90
13478;BME280;12598;62.382;17.344;2023-01-30T04:45:11;96795.63;;;18.15;25.90
13478;BME280;12598;62.382;17.344;2023-01-30T04:46:13;96791.81;;;18.11;25.96
13478;BME280;12598;62.382;17.344;2023-01-30T04:47:15;96785.84;;;18.04;26.09
13478;BME280;12598;62.382;17.344;2023-01-30T04:48:19;96793.59;;;18.05;25.96
13478;BME280;12598;62.382;17.344;2023-01-30T04:49:22;96800.91;;;18.10;25.82
13478;BME280;12598;62.382;17.344;2023-01-30T04:50:24;96792.09;;;18.09;26.02
13478;BME280;12598;62.382;17.344;2023-01-30T04:51:26;96797.66;;;18.08;26.17
13478;BME280;12598;62.382;17.344;2023-01-30T04:52:28;96797.66;;;18.08;26.16
13478;BME280;12598;62.382;17.344;2023-01-30T04:53:30;96789.66;;;18.08;26.08
13478;BME280;12598;62.382;17.344;2023-01-30T04:54:32;96792.31;;;18.08;26.19
13478;BME280;12598;62.382;17.344;2023-01-30T04:55:35;96796.03;;;18.07;25.90
13478;BME280;12598;62.382;17.344;2023-01-30T04:56:37;96793.13;;;18.08;25.79
13478;BME280;12598;62.382;17.344;2023-01-30T04:57:40;96799.28;;;18.09;25.71
13478;BME280;12598;62.382;17.344;2023-01-30T04:58:42;96792.09;;;18.09;25.85
13478;BME280;12598;62.382;17.344;2023-01-30T04:59:46;96763.25;;;17.95;26.00
13478;BME280;12598;62.382;17.344;2023-01-30T05:00:49;96787.78;;;18.08;25.89
13478;BME280;12598;62.382;17.344;2023-01-30T05:01:51;96787.53;;;18.10;25.74
13478;BME280;12598;62.382;17.344;2023-01-30T05:02:54;96782.13;;;18.05;25.96
13478;BME280;12598;62.382;17.344;2023-01-30T05:03:59;96791.25;;;18.09;25.86
13478;BME280;12598;62.382;17.344;2023-01-30T05:05:00;96786.97;;;18.08;26.04
13478;BME280;12598;62.382;17.344;2023-01-30T05:06:03;96781.63;;;18.08;26.08
13478;BME280;12598;62.382;17.344;2023-01-30T05:07:04;96789.88;;;18.06;26.06
13478;BME280;12598;62.382;17.344;2023-01-30T05:08:06;96785.34;;;18.07;26.25
13478;BME280;12598;62.382;17.344;2023-01-30T05:09:08;96790.69;;;18.07;26.35
13478;BME280;12598;62.382;17.344;2023-01-30T05:10:10;96784.53;;;18.06;25.86
13478;BME280;12598;62.382;17.344;2023-01-30T05:11:12;96787.19;;;18.06;26.06
13478;BME280;12598;62.382;17.344;2023-01-30T05:12:14;96784.53;;;18.06;25.88
13478;BME280;12598;62.382;17.344;2023-01-30T05:13:16;96771.41;;;18.05;25.86
13478;BME280;12598;62.382;17.344;2023-01-30T05:14:18;96779.19;;;18.06;25.66
13478;BME280;12598;62.382;17.344;2023-01-30T05:15:20;96785.34;;;18.07;25.72
13478;BME280;12598;62.382;17.344;2023-01-30T05:16:22;96778.38;;;18.06;25.75
13478;BME280;12598;62.382;17.344;2023-01-30T05:17:24;96782.81;;;18.00;26.06
13478;BME280;12598;62.382;17.344;2023-01-30T05:18:26;96782.59;;;18.02;25.99
13478;BME280;12598;62.382;17.344;2023-01-30T05:19:28;96790.13;;;18.05;25.91
13478;BME280;12598;62.382;17.344;2023-01-30T05:20:29;96777.47;;;18.00;26.04
13478;BME280;12598;62.382;17.344;2023-01-30T05:21:31;96788.50;;;18.04;25.96
13478;BME280;12598;62.382;17.344;2023-01-30T05:22:33;96797.09;;;18.06;25.88
13478;BME280;12598;62.382;17.344;2023-01-30T05:23:35;96794.41;;;18.06;25.78
13478;BME280;12598;62.382;17.344;2023-01-30T05:24:37;96786.56;;;17.99;25.93
13478;BME280;12598;62.382;17.344;2023-01-30T05:25:39;96775.31;;;17.97;25.88
13478;BME280;12598;62.382;17.344;2023-01-30T05:26:41;96785.59;;;18.05;26.09
13478;BME280;12598;62.382;17.344;2023-01-30T05:27:43;96791.97;;;18.04;25.81
13478;BME280;12598;62.382;17.344;2023-01-30T05:28:50;96783.16;;;18.04;25.99
13478;BME280;12598;62.382;17.344;2023-01-30T05:29:52;96789.06;;;18.06;25.93
13478;BME280;12598;62.382;17.344;2023-01-30T05:31:00;96792.53;;;18.06;26.05
13478;BME280;12598;62.382;17.344;2023-01-30T05:32:03;96786.63;;;18.04;25.65
13478;BME280;12598;62.382;17.344;2023-01-30T05:33:05;96782.59;;;18.02;26.01
13478;BME280;12598;62.382;17.344;2023-01-30T05:34:10;96787.13;;;18.01;25.84
13478;BME280;12598;62.382;17.344;2023-01-30T05:35:12;96789.88;;;18.06;25.77
13478;BME280;12598;62.382;17.344;2023-01-30T05:36:16;96791.97;;;18.04;26.14
13478;BME280;12598;62.382;17.344;2023-01-30T05:37:18;96783.09;;;17.99;25.79
13478;BME280;12598;62.382;17.344;2023-01-30T05:38:21;96786.81;;;17.98;25.84
13478;BME280;12598;62.382;17.344;2023-01-30T05:39:23;96791.97;;;18.04;26.13
13478;BME280;12598;62.382;17.344;2023-01-30T05:40:25;96787.38;;;18.00;25.60
13478;BME280;12598;62.382;17.344;2023-01-30T05:41:28;96782.59;;;18.02;25.67
13478;BME280;12598;62.382;17.344;2023-01-30T05:42:30;96797.31;;;18.04;25.85
13478;BME280;12598;62.382;17.344;2023-01-30T05:43:33;96792.25;;;18.03;25.77
13478;BME280;12598;62.382;17.344;2023-01-30T05:44:35;96793.59;;;18.05;26.13
13478;BME280;12598;62.382;17.344;2023-01-30T05:45:37;96780.41;;;17.99;26.08
13478;BME280;12598;62.382;17.344;2023-01-30T05:46:39;96778.88;;;18.03;25.73
13478;BME280;12598;62.382;17.344;2023-01-30T05:47:41;96791.19;;;18.04;25.84
13478;BME280;12598;62.382;17.344;2023-01-30T05:48:43;96791.19;;;18.04;25.98
13478;BME280;12598;62.382;17.344;2023-01-30T05:49:45;96786.81;;;17.98;26.01
13478;BME280;12598;62.382;17.344;2023-01-30T05:50:50;96781.47;;;17.98;25.77
13478;BME280;12598;62.382;17.344;2023-01-30T05:51:52;96785.75;;;17.99;26.13
13478;BME280;12598;62.382;17.344;2023-01-30T05:52:54;96775.56;;;17.96;25.60
13478;BME280;12598;62.382;17.344;2023-01-30T05:53:56;96790.63;;;18.02;25.81
13478;BME280;12598;62.382;17.344;2023-01-30T05:54:58;96789.56;;;18.03;25.70
13478;BME280;12598;62.382;17.344;2023-01-30T05:56:04;96786.31;;;18.01;25.99
13478;BME280;12598;62.382;17.344;2023-01-30T05:57:06;96786.31;;;18.01;25.72
13478;BME280;12598;62.382;17.344;2023-01-30T05:58:08;96785.28;;;18.02;25.99
13478;BME280;12598;62.382;17.344;2023-01-30T05:59:11;96780.72;;;18.02;25.95
13478;BME280;12598;62.382;17.344;2023-01-30T06:00:13;96784.72;;;18.00;25.96
13478;BME280;12598;62.382;17.344;2023-01-30T06:01:15;96772.63;;;17.97;25.98
13478;BME280;12598;62.382;17.344;2023-01-30T06:02:17;96778.88;;;18.03;25.98
13478;BME280;12598;62.382;17.344;2023-01-30T06:03:19;96776.44;;;18.01;26.38
13478;BME280;12598;62.382;17.344;2023-01-30T06:04:21;96765.66;;;17.96;26.05
13478;BME280;12598;62.382;17.344;2023-01-30T06:05:22;96752.78;;;17.93;26.18